createdAt,value
2023-04-29T00:02:33.913Z,3.73
2023-04-29T00:05:19.725Z,4.70
2023-04-29T00:08:05.936Z,4.27
2023-04-29T00:10:51.451Z,4.67
2023-04-29T00:13:36.898Z,3.60
2023-04-29T00:16:22.171Z,4.00
2023-04-29T00:19:07.480Z,4.27
2023-04-29T00:21:54.691Z,4.07
2023-04-29T00:24:40.366Z,4.10
2023-04-29T00:27:25.549Z,4.47
2023-04-29T00:30:15.726Z,3.93
2023-04-29T00:33:01.151Z,5.27
2023-04-29T00:35:47.075Z,4.07
2023-04-29T00:38:32.751Z,3.53
2023-04-29T00:41:17.910Z,3.60
2023-04-29T00:44:03.352Z,3.90
2023-04-29T00:46:48.736Z,3.07
2023-04-29T00:49:35.842Z,4.20
2023-04-29T00:52:23.036Z,4.40
2023-04-29T00:55:09.120Z,3.33
2023-04-29T00:57:54.850Z,3.17
2023-04-29T01:00:41.772Z,3.13
2023-04-29T01:03:29.116Z,5.37
2023-04-29T01:06:21.567Z,3.93
2023-04-29T01:09:47.279Z,2.58
2023-04-29T01:12:37.110Z,3.03
2023-04-29T01:16:01.156Z,2.63
2023-04-29T01:18:54.154Z,2.60
2023-04-29T01:21:50.909Z,2.50
2023-04-29T01:27:38.451Z,2.80
2023-04-29T01:30:47.691Z,3.33
2023-04-29T01:33:40.428Z,3.00
2023-04-29T01:37:03.118Z,4.18
2023-04-29T01:40:06.653Z,3.00
2023-04-29T01:43:09.574Z,2.73
2023-04-29T01:45:57.925Z,3.47
2023-04-29T01:48:43.565Z,3.73
2023-04-29T01:51:29.803Z,2.53
2023-04-29T01:54:15.939Z,3.30
2023-04-29T01:57:03.170Z,2.63
2023-04-29T01:59:57.363Z,2.73
2023-04-29T02:03:09.633Z,4.70
2023-04-29T02:06:01.366Z,3.37
2023-04-29T02:08:49.081Z,3.47
2023-04-29T02:11:35.790Z,3.37
2023-04-29T02:14:21.233Z,3.77
2023-04-29T02:17:06.692Z,3.17
2023-04-29T02:19:55.097Z,2.77
2023-04-29T02:22:41.062Z,2.80
2023-04-29T02:25:26.340Z,4.30
2023-04-29T02:28:12.150Z,2.97
2023-04-29T02:30:59.142Z,3.97
2023-04-29T02:33:44.327Z,5.00
2023-04-29T02:36:29.851Z,3.67
2023-04-29T02:39:15.230Z,5.30
2023-04-29T02:42:00.439Z,4.20
2023-04-29T02:44:45.763Z,3.93
2023-04-29T02:47:30.942Z,3.93
2023-04-29T02:50:16.373Z,3.60
2023-04-29T02:53:02.279Z,4.47
2023-04-29T02:55:48.487Z,4.80
2023-04-29T02:58:34.133Z,4.27
2023-04-29T03:01:19.465Z,5.87
2023-04-29T03:04:05.708Z,4.63
2023-04-29T03:06:51.578Z,3.00
2023-04-29T03:09:36.928Z,4.50
2023-04-29T03:12:22.762Z,3.57
2023-04-29T03:15:10.549Z,4.67
2023-04-29T03:17:56.345Z,3.43
2023-04-29T03:20:42.180Z,2.73
2023-04-29T03:23:28.081Z,3.13
2023-04-29T03:26:13.957Z,3.70
2023-04-29T03:28:59.563Z,4.67
2023-04-29T03:31:46.339Z,3.23
2023-04-29T03:34:32.443Z,6.30
2023-04-29T03:37:39.420Z,4.93
2023-04-29T03:40:42.965Z,2.47
2023-04-29T03:43:28.407Z,2.97
2023-04-29T03:46:13.778Z,3.53
2023-04-29T03:48:59.400Z,3.93
2023-04-29T03:51:47.669Z,4.27
2023-04-29T03:54:34.979Z,2.50
2023-04-29T03:57:20.897Z,3.50
2023-04-29T04:00:07.911Z,4.63
2023-04-29T04:03:00.340Z,2.50
2023-04-29T04:05:47.136Z,3.70
2023-04-29T04:08:34.560Z,3.43
2023-04-29T04:11:27.381Z,3.20
2023-04-29T04:14:19.056Z,4.63
2023-04-29T04:17:05.462Z,2.53
2023-04-29T04:19:51.736Z,4.83
2023-04-29T04:22:38.255Z,2.53
2023-04-29T04:25:33.994Z,3.20
2023-04-29T04:28:35.154Z,3.73
2023-04-29T04:31:25.907Z,2.27
2023-04-29T04:34:12.063Z,3.83
2023-04-29T04:36:57.584Z,3.57
2023-04-29T04:39:43.006Z,2.77
2023-04-29T04:42:31.642Z,2.70
2023-04-29T04:45:18.992Z,4.40
2023-04-29T04:48:08.810Z,3.33
2023-04-29T04:50:57.871Z,3.33
2023-04-29T04:53:44.727Z,2.37
2023-04-29T04:56:41.625Z,4.07
2023-04-29T04:59:27.579Z,2.70
2023-04-29T05:02:12.982Z,3.20
2023-04-29T05:04:59.270Z,1.87
2023-04-29T05:07:48.272Z,2.10
2023-04-29T05:10:37.614Z,3.87
2023-04-29T05:13:25.847Z,2.27
2023-04-29T05:16:12.880Z,4.33
2023-04-29T05:19:04.846Z,2.17
2023-04-29T05:21:55.518Z,2.53
2023-04-29T05:24:42.182Z,2.80
2023-04-29T05:27:27.385Z,3.83
2023-04-29T05:30:15.298Z,3.53
2023-04-29T05:33:01.835Z,2.07
2023-04-29T05:35:48.054Z,2.83
2023-04-29T05:38:33.454Z,2.50
2023-04-29T05:41:28.603Z,7.33
2023-04-29T05:44:14.685Z,10.60
2023-04-29T05:47:00.595Z,8.27
2023-04-29T05:49:46.789Z,5.80
2023-04-29T05:52:32.599Z,5.80
2023-04-29T05:55:17.987Z,4.77
2023-04-29T05:58:03.529Z,7.07
2023-04-29T06:00:49.717Z,5.30
2023-04-29T06:03:40.249Z,6.20
2023-04-29T06:06:45.938Z,5.43
2023-04-29T06:09:36.914Z,7.43
2023-04-29T06:12:22.398Z,8.70
2023-04-29T06:15:08.054Z,7.97
2023-04-29T06:17:53.629Z,6.73
2023-04-29T06:20:40.967Z,7.37
2023-04-29T06:23:26.591Z,7.43
2023-04-29T06:26:13.365Z,7.47
2023-04-29T06:28:59.122Z,7.30
2023-04-29T06:31:45.084Z,8.47
2023-04-29T06:34:31.041Z,7.17
2023-04-29T06:37:38.098Z,6.63
2023-04-29T06:40:47.624Z,4.67
2023-04-29T06:43:33.331Z,7.43
2023-04-29T06:46:30.976Z,5.43
2023-04-29T06:49:22.427Z,6.97
2023-04-29T06:52:08.129Z,5.17
2023-04-29T06:54:53.520Z,5.73
2023-04-29T06:57:39.027Z,4.73
2023-04-29T07:00:24.827Z,6.27
2023-04-29T07:03:13.729Z,5.20
2023-04-29T07:05:59.101Z,7.53
2023-04-29T07:08:45.036Z,5.20
2023-04-29T07:11:31.473Z,5.90
2023-04-29T07:14:16.706Z,4.87
2023-04-29T07:17:02.418Z,4.90
2023-04-29T07:19:48.655Z,4.30
2023-04-29T07:22:34.151Z,4.30
2023-04-29T07:25:19.793Z,6.13
2023-04-29T07:28:06.514Z,6.90
2023-04-29T07:30:52.823Z,9.70
2023-04-29T07:33:38.845Z,8.47
2023-04-29T07:36:24.076Z,7.73
2023-04-29T07:39:09.451Z,8.53
2023-04-29T07:41:55.996Z,10.90
2023-04-29T07:44:41.699Z,10.40
2023-04-29T07:47:27.255Z,8.60
2023-04-29T07:50:13.609Z,9.03
2023-04-29T07:53:00.618Z,9.57
2023-04-29T07:55:47.235Z,8.20
2023-04-29T07:58:33.097Z,9.20
2023-04-29T08:01:19.114Z,5.87
2023-04-29T08:04:05.427Z,8.67
2023-04-29T08:06:55.444Z,10.57
2023-04-29T08:09:40.655Z,10.50
2023-04-29T08:12:28.497Z,9.27
2023-04-29T08:15:13.998Z,7.37
2023-04-29T08:17:59.732Z,6.13
2023-04-29T08:20:48.301Z,8.37
2023-04-29T08:23:34.188Z,7.27
2023-04-29T08:26:22.589Z,10.30
2023-04-29T08:29:09.435Z,7.63
2023-04-29T08:31:55.703Z,6.70
2023-04-29T08:34:41.973Z,7.40
2023-04-29T08:37:27.830Z,6.33
2023-04-29T08:40:13.921Z,6.47
2023-04-29T08:43:00.298Z,7.30
2023-04-29T08:45:48.659Z,5.73
2023-04-29T08:48:37.331Z,10.43
2023-04-29T08:51:23.039Z,9.23
2023-04-29T08:54:08.558Z,4.67
2023-04-29T08:56:55.720Z,5.67
2023-04-29T08:59:41.679Z,9.10
2023-04-29T09:02:28.102Z,8.97
2023-04-29T09:05:14.033Z,6.40
2023-04-29T09:08:04.276Z,5.03
2023-04-29T09:10:53.777Z,8.33
2023-04-29T09:13:39.640Z,6.03
2023-04-29T09:16:24.901Z,6.63
2023-04-29T09:19:10.252Z,5.70
2023-04-29T09:21:58.250Z,5.73
2023-04-29T09:24:48.097Z,7.40
2023-04-29T09:27:35.107Z,5.27
2023-04-29T09:30:21.367Z,5.30
2023-04-29T09:33:09.275Z,6.63
2023-04-29T09:35:55.375Z,3.87
2023-04-29T09:38:56.150Z,6.80
2023-04-29T09:41:42.626Z,5.77
2023-04-29T09:44:36.010Z,6.20
2023-04-29T09:47:31.420Z,4.93
2023-04-29T09:50:19.588Z,5.03
2023-04-29T09:53:08.913Z,5.10
2023-04-29T09:55:54.215Z,5.80
2023-04-29T09:58:40.241Z,5.07
2023-04-29T10:01:27.619Z,4.93
2023-04-29T10:04:15.601Z,6.17
2023-04-29T10:07:02.672Z,9.10
2023-04-29T10:09:48.832Z,7.00
2023-04-29T10:12:38.864Z,4.10
2023-04-29T10:15:40.105Z,3.87
2023-04-29T10:18:49.320Z,5.23
2023-04-29T10:21:35.048Z,7.07
2023-04-29T10:24:22.575Z,7.10
2023-04-29T10:27:12.367Z,4.73
2023-04-29T10:30:00.885Z,8.13
2023-04-29T10:32:51.505Z,26.10
2023-04-29T10:35:38.019Z,34.33
2023-04-29T10:38:29.579Z,66.70
2023-04-29T10:41:20.946Z,117.30
2023-04-29T10:44:06.245Z,39.50
2023-04-29T10:47:21.592Z,37.33
2023-04-29T10:50:07.624Z,46.80
2023-04-29T10:52:53.027Z,71.63
2023-04-29T10:55:39.026Z,78.03
2023-04-29T10:58:37.810Z,63.13
2023-04-29T11:01:41.600Z,64.43
2023-04-29T11:04:27.529Z,66.47
2023-04-29T11:07:28.204Z,70.70
2023-04-29T11:10:14.005Z,76.27
2023-04-29T11:13:25.077Z,78.53
2023-04-29T11:16:11.586Z,78.17
2023-04-29T11:19:11.024Z,74.03
2023-04-29T11:22:30.164Z,75.30
2023-04-29T11:25:16.039Z,60.87
2023-04-29T11:28:02.187Z,58.73
2023-04-29T11:30:50.308Z,58.50
2023-04-29T11:33:35.954Z,53.60
2023-04-29T11:36:21.429Z,54.97
2023-04-29T11:39:08.179Z,49.47
2023-04-29T11:42:03.884Z,48.47
2023-04-29T11:44:53.433Z,46.07
2023-04-29T11:47:45.081Z,47.23
2023-04-29T11:50:32.794Z,46.43
2023-04-29T11:53:25.221Z,43.60
2023-04-29T11:56:11.696Z,48.60
2023-04-29T11:58:58.811Z,45.70
2023-04-29T12:01:44.477Z,44.23
2023-04-29T12:04:30.072Z,45.77
2023-04-29T12:07:16.959Z,45.07
2023-04-29T12:10:02.259Z,47.13
2023-04-29T12:12:48.418Z,45.43
2023-04-29T12:15:33.934Z,45.97
2023-04-29T12:18:20.040Z,47.20
2023-04-29T12:21:06.696Z,42.13
2023-04-29T12:23:52.645Z,43.90
2023-04-29T12:26:40.338Z,55.00
2023-04-29T12:29:26.669Z,49.90
2023-04-29T12:32:22.138Z,47.93
2023-04-29T12:35:16.862Z,52.00
2023-04-29T12:38:02.835Z,54.90
2023-04-29T12:40:49.591Z,50.73
2023-04-29T12:43:36.488Z,52.57
2023-04-29T12:46:23.690Z,49.17
2023-04-29T12:49:10.129Z,46.33
2023-04-29T12:51:55.440Z,43.27
2023-04-29T12:54:43.976Z,46.40
2023-04-29T12:57:30.517Z,46.27
2023-04-29T13:00:16.836Z,43.23
2023-04-29T13:03:02.494Z,43.97
2023-04-29T13:05:51.496Z,39.00
2023-04-29T13:08:37.901Z,42.50
2023-04-29T13:11:23.259Z,42.70
2023-04-29T13:14:08.990Z,40.90
2023-04-29T13:16:54.622Z,35.43
2023-04-29T13:19:51.072Z,40.00
2023-04-29T13:22:37.488Z,38.47
2023-04-29T13:25:23.154Z,35.37
2023-04-29T13:28:08.508Z,32.43
2023-04-29T13:30:54.427Z,35.43
2023-04-29T13:33:40.468Z,34.50
2023-04-29T13:36:28.346Z,33.03
2023-04-29T13:39:14.948Z,33.57
2023-04-29T13:42:00.536Z,31.47
2023-04-29T13:45:00.015Z,29.87
2023-04-29T13:48:06.783Z,28.47
2023-04-29T13:51:27.080Z,30.13
2023-04-29T13:54:48.176Z,26.40
2023-04-29T13:57:55.453Z,27.07
2023-04-29T14:00:31.639Z,25.07
2023-04-29T14:03:18.664Z,26.07
2023-04-29T14:06:04.122Z,23.00
2023-04-29T14:08:50.014Z,25.13
2023-04-29T14:11:36.910Z,24.93
2023-04-29T14:14:22.592Z,25.77
2023-04-29T14:17:07.749Z,23.60
2023-04-29T14:19:53.458Z,22.83
2023-04-29T14:22:40.141Z,19.93
2023-04-29T14:25:26.745Z,23.53
2023-04-29T14:28:13.935Z,21.27
2023-04-29T14:30:59.371Z,19.37
2023-04-29T14:33:44.716Z,20.50
2023-04-29T14:36:32.651Z,21.93
2023-04-29T14:39:18.467Z,21.43
2023-04-29T14:42:04.358Z,18.60
2023-04-29T14:44:49.644Z,22.47
2023-04-29T14:47:34.998Z,24.77
2023-04-29T14:50:20.643Z,21.80
2023-04-29T14:53:08.769Z,19.37
2023-04-29T14:55:54.347Z,17.63
2023-04-29T14:58:39.740Z,20.27
2023-04-29T15:01:26.155Z,20.40
2023-04-29T15:04:12.857Z,19.47
2023-04-29T15:07:01.018Z,17.23
2023-04-29T15:09:47.662Z,17.63
2023-04-29T15:12:34.006Z,18.70
2023-04-29T15:15:19.397Z,17.77
2023-04-29T15:18:06.328Z,20.93
2023-04-29T15:20:51.901Z,20.97
2023-04-29T15:23:37.631Z,20.67
2023-04-29T15:26:23.161Z,17.73
2023-04-29T15:29:08.698Z,15.97
2023-04-29T15:31:54.120Z,17.13
2023-04-29T15:34:39.358Z,19.93
2023-04-29T15:37:26.304Z,18.30
2023-04-29T15:40:12.471Z,15.40
2023-04-29T15:42:57.935Z,17.13
2023-04-29T15:45:43.377Z,14.60
2023-04-29T15:48:28.742Z,15.83
2023-04-29T15:51:15.168Z,13.30
2023-04-29T15:54:00.584Z,16.03
2023-04-29T15:56:45.708Z,15.30
2023-04-29T15:59:31.733Z,14.50
2023-04-29T16:02:17.344Z,17.13
2023-04-29T16:05:03.586Z,13.37
2023-04-29T16:07:49.105Z,13.93
2023-04-29T16:10:34.394Z,13.47
2023-04-29T16:13:19.921Z,12.70
2023-04-29T16:16:06.790Z,14.17
2023-04-29T16:18:52.065Z,12.97
2023-04-29T16:21:37.388Z,14.37
2023-04-29T16:24:22.920Z,12.80
2023-04-29T16:27:08.581Z,13.77
2023-04-29T16:29:55.670Z,11.03
2023-04-29T16:32:43.183Z,13.03
2023-04-29T16:35:30.963Z,18.17
2023-04-29T16:38:16.624Z,13.20
2023-04-29T16:41:02.519Z,12.67
2023-04-29T16:43:47.897Z,11.80
2023-04-29T16:46:33.413Z,11.13
2023-04-29T16:49:26.569Z,12.90
2023-04-29T16:52:12.756Z,12.68
2023-04-29T16:55:00.318Z,11.37
2023-04-29T16:57:45.776Z,11.67
2023-04-29T17:00:31.716Z,11.33
2023-04-29T17:03:17.251Z,11.17
2023-04-29T17:06:04.198Z,12.33
2023-04-29T17:08:51.534Z,10.20
2023-04-29T17:11:37.163Z,10.60
2023-04-29T17:14:23.055Z,12.10
2023-04-29T17:17:12.002Z,10.03
2023-04-29T17:19:57.696Z,11.13
2023-04-29T17:22:42.922Z,8.93
2023-04-29T17:25:28.222Z,10.63
2023-04-29T17:28:13.848Z,9.40
2023-04-29T17:31:01.244Z,10.60
2023-04-29T17:33:55.262Z,9.27
2023-04-29T17:36:41.225Z,11.30
2023-04-29T17:39:26.445Z,9.10
2023-04-29T17:42:12.200Z,8.10
2023-04-29T17:44:57.820Z,9.00
2023-04-29T17:47:44.052Z,8.60
2023-04-29T17:50:31.708Z,8.77
2023-04-29T17:53:17.964Z,7.77
2023-04-29T17:56:03.644Z,8.07
2023-04-29T17:58:49.268Z,9.40
2023-04-29T18:01:35.833Z,12.10
2023-04-29T18:04:21.531Z,9.10
2023-04-29T18:07:07.124Z,13.50
2023-04-29T18:09:53.270Z,11.13
2023-04-29T18:12:39.085Z,12.60
2023-04-29T18:15:24.513Z,13.87
2023-04-29T18:18:10.597Z,12.63
2023-04-29T18:20:59.290Z,9.83
2023-04-29T18:23:45.133Z,10.50
2023-04-29T18:26:31.216Z,9.40
2023-04-29T18:29:17.037Z,9.67
2023-04-29T18:32:02.410Z,10.93
2023-04-29T18:34:48.406Z,8.90
2023-04-29T18:37:33.913Z,10.17
2023-04-29T18:40:20.661Z,9.00
2023-04-29T18:43:06.267Z,9.03
2023-04-29T18:45:52.129Z,12.70
2023-04-29T18:48:39.019Z,8.50
2023-04-29T18:51:25.121Z,8.33
2023-04-29T18:54:11.226Z,10.30
2023-04-29T18:56:56.717Z,9.67
2023-04-29T18:59:42.637Z,9.00
2023-04-29T19:02:28.600Z,8.67
2023-04-29T19:05:14.413Z,11.07
2023-04-29T19:07:59.969Z,8.57
2023-04-29T19:10:46.595Z,9.27
2023-04-29T19:13:32.240Z,8.10
2023-04-29T19:16:18.119Z,8.53
2023-04-29T19:19:04.321Z,9.90
2023-04-29T19:21:49.879Z,11.37
2023-04-29T19:24:37.110Z,7.77
2023-04-29T19:27:23.339Z,7.43
2023-04-29T19:30:09.423Z,7.40
2023-04-29T19:32:55.686Z,10.03
2023-04-29T19:35:41.404Z,7.73
2023-04-29T19:38:26.958Z,7.97
2023-04-29T19:41:12.795Z,8.83
2023-04-29T19:43:58.099Z,7.83
2023-04-29T19:46:43.634Z,8.03
2023-04-29T19:49:29.262Z,8.60
2023-04-29T19:52:14.680Z,7.07
2023-04-29T19:55:00.099Z,8.80
2023-04-29T19:57:45.599Z,6.70
2023-04-29T20:00:31.499Z,9.27
2023-04-29T20:03:17.144Z,8.17
2023-04-29T20:06:02.525Z,7.80
2023-04-29T20:08:48.405Z,7.17
2023-04-29T20:11:33.713Z,7.27
2023-04-29T20:14:19.482Z,8.80
2023-04-29T20:17:05.014Z,6.97
2023-04-29T20:19:50.535Z,9.23
2023-04-29T20:22:36.660Z,6.33
2023-04-29T20:25:22.011Z,6.33
2023-04-29T20:28:08.992Z,6.17
2023-04-29T20:30:54.315Z,6.43
2023-04-29T20:33:39.423Z,6.87
2023-04-29T20:36:24.711Z,7.63
2023-04-29T20:39:10.872Z,6.30
2023-04-29T20:41:57.199Z,6.50
2023-04-29T20:44:43.250Z,8.53
2023-04-29T20:47:29.022Z,6.27
2023-04-29T20:50:14.392Z,7.13
2023-04-29T20:53:00.631Z,6.63
2023-04-29T20:55:46.660Z,6.20
2023-04-29T20:58:32.305Z,6.17
2023-04-29T21:01:19.504Z,8.27
2023-04-29T21:04:06.085Z,7.10
2023-04-29T21:06:52.723Z,6.60
2023-04-29T21:09:38.605Z,6.27
2023-04-29T21:12:24.873Z,6.77
2023-04-29T21:15:11.348Z,7.70
2023-04-29T21:17:56.902Z,5.83
2023-04-29T21:20:42.347Z,6.87
2023-04-29T21:23:27.856Z,5.87
2023-04-29T21:26:15.001Z,5.17
2023-04-29T21:29:01.169Z,5.67
2023-04-29T21:31:47.205Z,4.83
2023-04-29T21:34:32.792Z,6.83
2023-04-29T21:37:18.402Z,6.37
2023-04-29T21:40:04.864Z,5.57
2023-04-29T21:42:51.097Z,6.10
2023-04-29T21:45:36.575Z,5.33
2023-04-29T21:48:21.982Z,5.73
2023-04-29T21:51:08.794Z,6.10
2023-04-29T21:53:54.541Z,4.90
2023-04-29T21:56:39.756Z,5.67
2023-04-29T21:59:25.509Z,4.70
2023-04-29T22:02:23.000Z,10.33
2023-04-29T22:05:08.837Z,5.67
2023-04-29T22:07:54.881Z,6.00
2023-04-29T22:10:41.591Z,5.50
2023-04-29T22:13:26.859Z,6.30
2023-04-29T22:16:12.353Z,5.17
2023-04-29T22:18:58.039Z,5.37
2023-04-29T22:21:43.384Z,6.73
2023-04-29T22:24:28.682Z,5.17
2023-04-29T22:27:13.934Z,5.67
2023-04-29T22:29:59.436Z,4.97
2023-04-29T22:32:44.876Z,4.97
2023-04-29T22:35:30.307Z,4.97
2023-04-29T22:38:16.328Z,6.30
2023-04-29T22:41:01.841Z,5.20
2023-04-29T22:43:47.217Z,5.37
2023-04-29T22:46:33.532Z,5.67
2023-04-29T22:49:19.098Z,4.87
2023-04-29T22:52:04.749Z,5.80
2023-04-29T22:54:50.629Z,5.77
2023-04-29T22:57:36.133Z,12.03
2023-04-29T23:00:22.144Z,4.87
2023-04-29T23:03:07.386Z,6.10
2023-04-29T23:05:57.825Z,5.40
2023-04-29T23:08:44.663Z,4.73
2023-04-29T23:11:31.220Z,4.87
2023-04-29T23:14:16.907Z,4.63
2023-04-29T23:17:02.218Z,4.87
2023-04-29T23:19:47.672Z,5.53
2023-04-29T23:22:33.065Z,4.27
2023-04-29T23:25:18.374Z,4.60
2023-04-29T23:28:03.716Z,5.17
2023-04-29T23:30:49.258Z,5.70
2023-04-29T23:33:34.470Z,5.97
2023-04-29T23:36:19.610Z,4.40
2023-04-29T23:39:05.386Z,4.77
2023-04-29T23:41:51.465Z,4.40
2023-04-29T23:44:39.255Z,4.30
2023-04-29T23:47:24.834Z,4.83
2023-04-29T23:50:10.465Z,4.27
2023-04-29T23:52:56.133Z,5.07
2023-04-29T23:55:41.643Z,4.93
2023-04-29T23:58:27.963Z,4.20
